createdAt,value
2022-12-18T00:00:21.591Z,11
2022-12-18T00:05:23.255Z,10
2022-12-18T00:10:25.002Z,11
2022-12-18T00:15:26.593Z,7
2022-12-18T00:20:28.448Z,10
2022-12-18T00:25:30.154Z,8
2022-12-18T00:30:31.862Z,8
2022-12-18T00:35:33.491Z,8
2022-12-18T00:40:35.188Z,7
2022-12-18T00:45:36.969Z,7
2022-12-18T00:50:38.618Z,8
2022-12-18T00:55:40.426Z,7
2022-12-18T01:00:42.150Z,7
2022-12-18T01:05:43.859Z,10
2022-12-18T01:10:45.718Z,7
2022-12-18T01:15:47.852Z,8
2022-12-18T01:20:49.487Z,7
2022-12-18T01:25:51.217Z,8
2022-12-18T01:30:52.893Z,8
2022-12-18T01:35:54.554Z,7
2022-12-18T01:40:56.402Z,8
2022-12-18T01:45:58.092Z,8
2022-12-18T01:50:59.967Z,7
2022-12-18T01:56:01.717Z,8
2022-12-18T02:01:03.597Z,7
2022-12-18T02:06:05.381Z,10
2022-12-18T02:11:07.151Z,7
2022-12-18T02:16:08.890Z,10
2022-12-18T02:21:10.632Z,7
2022-12-18T02:26:12.384Z,11
2022-12-18T02:31:14.123Z,11
2022-12-18T02:36:15.829Z,7
2022-12-18T02:41:17.545Z,11
2022-12-18T02:46:19.203Z,10
2022-12-18T02:51:20.859Z,8
2022-12-18T02:56:22.528Z,8
2022-12-18T03:01:24.311Z,10
2022-12-18T03:06:26.042Z,10
2022-12-18T03:11:27.848Z,10
2022-12-18T03:16:29.529Z,13
2022-12-18T03:21:31.231Z,10
2022-12-18T03:26:32.912Z,10
2022-12-18T03:31:34.581Z,11
2022-12-18T03:36:36.173Z,12
2022-12-18T03:41:37.865Z,8
2022-12-18T03:46:39.454Z,11
2022-12-18T03:51:41.073Z,12
2022-12-18T03:56:42.762Z,15
2022-12-18T04:01:44.632Z,11
2022-12-18T04:06:46.334Z,12
2022-12-18T04:11:48.218Z,12
2022-12-18T04:16:49.847Z,10
2022-12-18T04:21:51.486Z,10
2022-12-18T04:26:53.205Z,12
2022-12-18T04:31:54.809Z,11
2022-12-18T04:36:56.469Z,9
2022-12-18T04:41:58.728Z,11
2022-12-18T04:47:00.407Z,11
2022-12-18T04:52:02.169Z,12
2022-12-18T04:57:03.818Z,12
2022-12-18T05:02:05.685Z,11
2022-12-18T05:07:07.433Z,12
2022-12-18T05:12:09.136Z,12
2022-12-18T05:17:11.452Z,11
2022-12-18T05:22:13.062Z,11
2022-12-18T05:27:14.722Z,12
2022-12-18T05:32:16.373Z,12
2022-12-18T05:37:17.975Z,11
2022-12-18T05:42:19.685Z,11
2022-12-18T05:47:21.332Z,11
2022-12-18T05:52:23.024Z,11
2022-12-18T05:57:24.766Z,9
2022-12-18T06:02:26.471Z,12
2022-12-18T06:07:28.335Z,11
2022-12-18T06:12:30.077Z,12
2022-12-18T06:17:31.730Z,14
2022-12-18T06:22:33.533Z,11
2022-12-18T06:27:35.183Z,12
2022-12-18T06:32:36.759Z,15
2022-12-18T06:37:38.403Z,14
2022-12-18T06:42:40.061Z,15
2022-12-18T06:47:41.819Z,8
2022-12-18T06:52:43.533Z,11
2022-12-18T06:57:45.237Z,11
2022-12-18T07:02:46.984Z,12
2022-12-18T07:07:48.681Z,12
2022-12-18T07:12:50.535Z,8
2022-12-18T07:17:52.191Z,11
2022-12-18T07:22:56.394Z,9
2022-12-18T07:27:58.419Z,13
2022-12-18T07:33:00.149Z,9
2022-12-18T07:38:01.878Z,9
2022-12-18T07:43:03.554Z,11
2022-12-18T07:48:05.196Z,8
2022-12-18T07:53:06.834Z,9
2022-12-18T07:58:08.528Z,9
2022-12-18T08:03:10.141Z,8
2022-12-18T08:08:11.771Z,6
2022-12-18T08:13:13.479Z,5
2022-12-18T08:18:15.101Z,7
2022-12-18T08:23:16.711Z,5
2022-12-18T08:28:18.430Z,6
2022-12-18T08:33:20.072Z,6
2022-12-18T08:38:21.672Z,4
2022-12-18T08:43:23.384Z,5
2022-12-18T08:48:25.000Z,6
2022-12-18T08:53:29.242Z,5
2022-12-18T08:58:35.381Z,5
2022-12-18T09:03:37.195Z,5
2022-12-18T09:08:39.630Z,5
2022-12-18T09:13:41.913Z,2
2022-12-18T09:18:44.065Z,4
2022-12-18T09:23:45.741Z,4
2022-12-18T09:28:47.432Z,4
2022-12-18T09:33:49.044Z,2
2022-12-18T09:38:50.674Z,5
2022-12-18T09:43:52.376Z,2
2022-12-18T09:48:53.965Z,2
2022-12-18T09:53:55.705Z,2
2022-12-18T09:58:57.405Z,2
2022-12-18T10:03:59.054Z,1
2022-12-18T10:09:00.702Z,4
2022-12-18T10:14:02.423Z,4
2022-12-18T10:19:04.028Z,2
2022-12-18T10:24:05.646Z,4
2022-12-18T10:29:07.373Z,6
2022-12-18T10:34:09.156Z,4
2022-12-18T10:39:10.784Z,4
2022-12-18T10:44:12.606Z,4
2022-12-18T10:49:14.559Z,4
2022-12-18T10:54:16.178Z,4
2022-12-18T10:59:18.082Z,5
2022-12-18T11:04:19.728Z,5
2022-12-18T11:09:21.345Z,4
2022-12-18T11:14:23.049Z,4
2022-12-18T11:19:24.811Z,5
2022-12-18T11:24:26.435Z,5
2022-12-18T11:29:28.101Z,5
2022-12-18T11:34:30.354Z,4
2022-12-18T11:39:32.304Z,4
2022-12-18T11:44:34.043Z,4
2022-12-18T11:49:35.622Z,2
2022-12-18T11:54:37.246Z,5
2022-12-18T11:59:38.996Z,4
2022-12-18T12:04:40.674Z,2
2022-12-18T12:09:42.311Z,5
2022-12-18T12:14:44.215Z,4
2022-12-18T12:19:45.869Z,2
2022-12-18T12:24:47.528Z,4
2022-12-18T12:29:49.209Z,5
2022-12-18T12:34:52.670Z,4
2022-12-18T12:39:57.791Z,5
2022-12-18T12:44:59.496Z,4
2022-12-18T12:50:01.176Z,4
2022-12-18T12:55:02.862Z,5
2022-12-18T13:00:04.675Z,7
2022-12-18T13:05:06.367Z,4
2022-12-18T13:10:08.150Z,5
2022-12-18T13:15:11.798Z,4
2022-12-18T13:20:14.091Z,4
2022-12-18T13:25:17.752Z,4
2022-12-18T13:30:20.105Z,4
2022-12-18T13:35:21.760Z,4
2022-12-18T13:40:24.559Z,4
2022-12-18T13:45:26.230Z,4
2022-12-18T13:50:35.447Z,2
2022-12-18T13:55:37.948Z,2
2022-12-18T14:00:39.711Z,4
2022-12-18T14:05:43.703Z,2
2022-12-18T14:10:49.137Z,4
2022-12-18T14:15:51.719Z,4
2022-12-18T14:20:53.461Z,4
2022-12-18T14:25:55.134Z,4
2022-12-18T14:30:56.908Z,4
2022-12-18T14:35:58.593Z,4
2022-12-18T14:41:00.235Z,4
2022-12-18T14:46:02.004Z,4
2022-12-18T14:51:04.045Z,2
2022-12-18T14:56:05.665Z,2
2022-12-18T15:01:07.384Z,5
2022-12-18T15:06:09.072Z,2
2022-12-18T15:11:13.228Z,4
2022-12-18T15:16:15.523Z,2
2022-12-18T15:21:17.186Z,2
2022-12-18T15:26:18.848Z,4
2022-12-18T15:31:20.591Z,2
2022-12-18T15:36:26.413Z,2
2022-12-18T15:41:28.728Z,2
2022-12-18T15:46:30.460Z,2
2022-12-18T15:51:32.097Z,2
2022-12-18T15:56:33.718Z,1
2022-12-18T16:01:40.892Z,1
2022-12-18T16:06:58.060Z,2
2022-12-18T16:12:15.489Z,1
2022-12-18T16:17:17.204Z,1
2022-12-18T16:22:18.990Z,1
2022-12-18T16:27:20.609Z,2
2022-12-18T16:32:22.199Z,1
2022-12-18T16:37:25.035Z,1
2022-12-18T16:42:26.692Z,1
2022-12-18T16:47:28.360Z,2
2022-12-18T16:52:29.970Z,1
2022-12-18T16:57:31.667Z,1
2022-12-18T17:02:33.723Z,1
2022-12-18T17:07:35.556Z,4
2022-12-18T17:12:38.421Z,1
2022-12-18T17:17:40.056Z,2
2022-12-18T17:22:41.634Z,2
2022-12-18T17:27:43.253Z,4
2022-12-18T17:32:45.024Z,2
2022-12-18T17:37:46.643Z,2
2022-12-18T17:42:48.294Z,2
2022-12-18T17:47:49.952Z,2
2022-12-18T17:52:51.568Z,2
2022-12-18T17:57:53.188Z,4
2022-12-18T18:02:55.113Z,1
2022-12-18T18:07:56.991Z,2
2022-12-18T18:12:58.576Z,2
2022-12-18T18:18:00.219Z,4
2022-12-18T18:23:01.907Z,2
2022-12-18T18:28:03.614Z,4
2022-12-18T18:33:10.343Z,4
2022-12-18T18:38:13.789Z,4
2022-12-18T18:43:15.462Z,4
2022-12-18T18:48:17.053Z,5
2022-12-18T18:53:18.734Z,4
2022-12-18T18:58:20.373Z,5
2022-12-18T19:03:22.256Z,5
2022-12-18T19:08:24.325Z,5
2022-12-18T19:13:25.910Z,5
2022-12-18T19:18:27.731Z,5
2022-12-18T19:23:29.749Z,5
2022-12-18T19:28:31.407Z,5
2022-12-18T19:33:42.852Z,7
2022-12-18T19:38:45.717Z,4
2022-12-18T19:43:47.628Z,5
2022-12-18T19:48:49.186Z,5
2022-12-18T19:53:55.103Z,5
2022-12-18T19:59:00.056Z,7
2022-12-18T20:04:01.944Z,4
2022-12-18T20:09:04.243Z,5
2022-12-18T20:14:05.854Z,5
2022-12-18T20:19:07.453Z,4
2022-12-18T20:24:09.455Z,7
2022-12-18T20:29:11.157Z,5
2022-12-18T20:34:12.807Z,4
2022-12-18T20:39:14.504Z,2
2022-12-18T20:44:22.644Z,5
2022-12-18T20:49:25.081Z,7
2022-12-18T20:54:26.760Z,5
2022-12-18T20:59:28.445Z,5
2022-12-18T21:04:30.044Z,8
2022-12-18T21:09:37.140Z,5
2022-12-18T21:14:40.111Z,7
2022-12-18T21:19:41.769Z,7
2022-12-18T21:24:43.711Z,5
2022-12-18T21:29:45.315Z,7
2022-12-18T21:34:48.397Z,5
2022-12-18T21:39:50.139Z,7
2022-12-18T21:44:51.828Z,5
2022-12-18T21:49:53.463Z,5
2022-12-18T21:54:55.235Z,7
2022-12-18T21:59:56.977Z,7
2022-12-18T22:04:58.633Z,5
2022-12-18T22:10:00.875Z,4
2022-12-18T22:15:03.713Z,4
2022-12-18T22:20:05.369Z,5
2022-12-18T22:25:07.024Z,7
2022-12-18T22:30:08.604Z,5
2022-12-18T22:35:15.566Z,5
2022-12-18T22:40:23.537Z,4
2022-12-18T22:45:25.973Z,5
2022-12-18T22:50:27.616Z,4
2022-12-18T22:55:29.230Z,4
2022-12-18T23:00:30.825Z,5
2022-12-18T23:05:32.458Z,8
2022-12-18T23:10:34.108Z,7
2022-12-18T23:15:35.884Z,5
2022-12-18T23:20:37.671Z,5
2022-12-18T23:25:40.200Z,5
2022-12-18T23:30:42.087Z,5
2022-12-18T23:35:43.687Z,2
2022-12-18T23:40:45.327Z,2
2022-12-18T23:45:55.405Z,2
2022-12-18T23:50:57.397Z,5
2022-12-18T23:55:59.008Z,5
